sensor_id;sensor_type;location;lat;lon;timestamp;pressure;altitude;pressure_sealevel;temperature;humidity
21203;BME280;10759;51.982;9.232;2023-08-01T00:00:25;98764.47;;;16.91;100.00
21203;BME280;10759;51.982;9.232;2023-08-01T00:02:54;98766.03;;;16.93;100.00
21203;BME280;10759;51.982;9.232;2023-08-01T00:05:22;98774.84;;;16.95;100.00
21203;BME280;10759;51.982;9.232;2023-08-01T00:07:51;98770.03;;;16.99;100.00
21203;BME280;10759;51.982;9.232;2023-08-01T00:10:20;98761.88;;;16.89;100.00
21203;BME280;10759;51.982;9.232;2023-08-01T00:12:49;98753.66;;;17.01;100.00
21203;BME280;10759;51.982;9.232;2023-08-01T00:15:18;98745.38;;;16.92;100.00
21203;BME280;10759;51.982;9.232;2023-08-01T00:17:46;98739.63;;;16.86;100.00
21203;BME280;10759;51.982;9.232;2023-08-01T00:20:14;98718.44;;;16.81;100.00
21203;BME280;10759;51.982;9.232;2023-08-01T00:22:43;98736.69;;;16.89;100.00
21203;BME280;10759;51.982;9.232;2023-08-01T00:25:11;98718.88;;;16.86;100.00
21203;BME280;10759;51.982;9.232;2023-08-01T00:27:39;98717.75;;;16.89;100.00
21203;BME280;10759;51.982;9.232;2023-08-01T00:30:10;98710.47;;;16.89;100.00
21203;BME280;10759;51.982;9.232;2023-08-01T00:32:38;98709.03;;;16.85;100.00
21203;BME280;10759;51.982;9.232;2023-08-01T00:35:07;98705.59;;;16.83;100.00
21203;BME280;10759;51.982;9.232;2023-08-01T00:37:37;98704.63;;;16.84;100.00
21203;BME280;10759;51.982;9.232;2023-08-01T00:40:06;98692.56;;;16.88;100.00
21203;BME280;10759;51.982;9.232;2023-08-01T00:42:36;98698.22;;;16.85;100.00
21203;BME280;10759;51.982;9.232;2023-08-01T00:45:06;98639.50;;;16.57;100.00
21203;BME280;10759;51.982;9.232;2023-08-01T00:47:35;98683.97;;;16.83;100.00
21203;BME280;10759;51.982;9.232;2023-08-01T00:50:04;98671.53;;;16.71;100.00
21203;BME280;10759;51.982;9.232;2023-08-01T00:52:34;98675.97;;;16.72;100.00
21203;BME280;10759;51.982;9.232;2023-08-01T00:55:03;98670.13;;;16.77;100.00
21203;BME280;10759;51.982;9.232;2023-08-01T00:57:32;98670.41;;;16.64;100.00
21203;BME280;10759;51.982;9.232;2023-08-01T01:00:00;98658.88;;;16.71;100.00
21203;BME280;10759;51.982;9.232;2023-08-01T01:02:28;98655.97;;;16.53;100.00
21203;BME280;10759;51.982;9.232;2023-08-01T01:04:58;98643.41;;;16.43;100.00
21203;BME280;10759;51.982;9.232;2023-08-01T01:07:26;98646.53;;;16.38;100.00
21203;BME280;10759;51.982;9.232;2023-08-01T01:09:55;98641.16;;;16.48;100.00
21203;BME280;10759;51.982;9.232;2023-08-01T01:12:23;98643.97;;;16.37;100.00
21203;BME280;10759;51.982;9.232;2023-08-01T01:14:53;98641.69;;;16.32;100.00
21203;BME280;10759;51.982;9.232;2023-08-01T01:17:21;98633.75;;;16.40;100.00
21203;BME280;10759;51.982;9.232;2023-08-01T01:19:50;98611.97;;;16.32;100.00
21203;BME280;10759;51.982;9.232;2023-08-01T01:22:19;98624.66;;;16.51;100.00
21203;BME280;10759;51.982;9.232;2023-08-01T01:24:49;98627.78;;;16.56;100.00
21203;BME280;10759;51.982;9.232;2023-08-01T01:27:18;98629.53;;;16.57;100.00
21203;BME280;10759;51.982;9.232;2023-08-01T01:29:48;98625.84;;;16.68;100.00
21203;BME280;10759;51.982;9.232;2023-08-01T01:32:18;98605.66;;;16.72;100.00
21203;BME280;10759;51.982;9.232;2023-08-01T01:34:47;98606.19;;;16.66;100.00
21203;BME280;10759;51.982;9.232;2023-08-01T01:37:15;98573.16;;;16.52;100.00
21203;BME280;10759;51.982;9.232;2023-08-01T01:39:45;98609.69;;;16.87;100.00
21203;BME280;10759;51.982;9.232;2023-08-01T01:42:13;98605.41;;;16.94;100.00
21203;BME280;10759;51.982;9.232;2023-08-01T01:44:41;98606.56;;;16.92;100.00
21203;BME280;10759;51.982;9.232;2023-08-01T01:47:10;98616.09;;;16.96;100.00
21203;BME280;10759;51.982;9.232;2023-08-01T01:49:38;98604.84;;;17.10;100.00
21203;BME280;10759;51.982;9.232;2023-08-01T01:52:06;98593.16;;;17.00;100.00
21203;BME280;10759;51.982;9.232;2023-08-01T01:54:34;98594.47;;;16.96;100.00
21203;BME280;10759;51.982;9.232;2023-08-01T01:57:05;98537.19;;;16.62;100.00
21203;BME280;10759;51.982;9.232;2023-08-01T01:59:33;98580.63;;;16.89;100.00
21203;BME280;10759;51.982;9.232;2023-08-01T02:02:01;98581.91;;;16.85;100.00
21203;BME280;10759;51.982;9.232;2023-08-01T02:04:30;98572.38;;;16.81;100.00
21203;BME280;10759;51.982;9.232;2023-08-01T02:06:59;98570.66;;;16.80;100.00
21203;BME280;10759;51.982;9.232;2023-08-01T02:09:27;98575.09;;;16.81;100.00
21203;BME280;10759;51.982;9.232;2023-08-01T02:11:56;98582.19;;;16.82;100.00
21203;BME280;10759;51.982;9.232;2023-08-01T02:14:25;98572.38;;;16.81;100.00
21203;BME280;10759;51.982;9.232;2023-08-01T02:16:53;98563.25;;;16.82;100.00
21203;BME280;10759;51.982;9.232;2023-08-01T02:19:21;98559.13;;;16.78;100.00
21203;BME280;10759;51.982;9.232;2023-08-01T02:21:50;98554.56;;;16.69;100.00
21203;BME280;10759;51.982;9.232;2023-08-01T02:24:18;98553.41;;;16.71;100.00
21203;BME280;10759;51.982;9.232;2023-08-01T02:26:46;98549.19;;;16.79;100.00
21203;BME280;10759;51.982;9.232;2023-08-01T02:29:14;98530.66;;;16.74;100.00
21203;BME280;10759;51.982;9.232;2023-08-01T02:31:44;98531.66;;;16.83;100.00
21203;BME280;10759;51.982;9.232;2023-08-01T02:34:12;98534.31;;;16.73;100.00
21203;BME280;10759;51.982;9.232;2023-08-01T02:36:40;98482.69;;;16.47;100.00
21203;BME280;10759;51.982;9.232;2023-08-01T02:39:08;98528.19;;;16.71;100.00
21203;BME280;10759;51.982;9.232;2023-08-01T02:41:37;98525.38;;;16.72;100.00
21203;BME280;10759;51.982;9.232;2023-08-01T02:44:05;98513.41;;;16.65;100.00
21203;BME280;10759;51.982;9.232;2023-08-01T02:46:33;98531.34;;;16.66;100.00
21203;BME280;10759;51.982;9.232;2023-08-01T02:49:03;98518.78;;;16.46;100.00
21203;BME280;10759;51.982;9.232;2023-08-01T02:51:31;98510.53;;;16.38;100.00
21203;BME280;10759;51.982;9.232;2023-08-01T02:53:59;98502.72;;;16.25;100.00
21203;BME280;10759;51.982;9.232;2023-08-01T02:56:27;98512.66;;;16.24;100.00
21203;BME280;10759;51.982;9.232;2023-08-01T02:58:55;98514.66;;;16.32;100.00
21203;BME280;10759;51.982;9.232;2023-08-01T03:01:24;98517.22;;;16.43;100.00
21203;BME280;10759;51.982;9.232;2023-08-01T03:03:52;98517.41;;;16.51;100.00
21203;BME280;10759;51.982;9.232;2023-08-01T03:06:22;98524.38;;;16.54;100.00
21203;BME280;10759;51.982;9.232;2023-08-01T03:08:50;98513.09;;;16.49;100.00
21203;BME280;10759;51.982;9.232;2023-08-01T03:11:18;98512.41;;;16.37;100.00
21203;BME280;10759;51.982;9.232;2023-08-01T03:13:47;98513.38;;;16.36;100.00
21203;BME280;10759;51.982;9.232;2023-08-01T03:16:15;98506.81;;;16.19;100.00
21203;BME280;10759;51.982;9.232;2023-08-01T03:18:44;98505.09;;;16.08;100.00
21203;BME280;10759;51.982;9.232;2023-08-01T03:21:12;98507.06;;;16.06;100.00
21203;BME280;10759;51.982;9.232;2023-08-01T03:23:42;98466.47;;;15.77;100.00
21203;BME280;10759;51.982;9.232;2023-08-01T03:26:10;98499.13;;;16.15;100.00
21203;BME280;10759;51.982;9.232;2023-08-01T03:28:38;98517.03;;;16.06;100.00
21203;BME280;10759;51.982;9.232;2023-08-01T03:31:07;98513.88;;;16.01;100.00
21203;BME280;10759;51.982;9.232;2023-08-01T03:33:35;98506.19;;;15.96;100.00
21203;BME280;10759;51.982;9.232;2023-08-01T03:36:04;98504.53;;;16.05;100.00
21203;BME280;10759;51.982;9.232;2023-08-01T03:38:32;98486.84;;;15.91;100.00
21203;BME280;10759;51.982;9.232;2023-08-01T03:41:02;98505.38;;;16.05;100.00
21203;BME280;10759;51.982;9.232;2023-08-01T03:43:31;98507.88;;;15.97;100.00
21203;BME280;10759;51.982;9.232;2023-08-01T03:45:59;98501.09;;;16.03;100.00
21203;BME280;10759;51.982;9.232;2023-08-01T03:48:30;98467.50;;;15.86;100.00
21203;BME280;10759;51.982;9.232;2023-08-01T03:51:00;98489.66;;;15.89;100.00
21203;BME280;10759;51.982;9.232;2023-08-01T03:53:34;98489.97;;;15.96;100.00
21203;BME280;10759;51.982;9.232;2023-08-01T03:56:12;98502.09;;;16.12;100.00
21203;BME280;10759;51.982;9.232;2023-08-01T03:58:43;98509.97;;;16.24;100.00
21203;BME280;10759;51.982;9.232;2023-08-01T04:01:12;98507.69;;;16.20;100.00
21203;BME280;10759;51.982;9.232;2023-08-01T04:03:50;98496.16;;;16.18;100.00
21203;BME280;10759;51.982;9.232;2023-08-01T04:06:20;98500.00;;;16.25;100.00
21203;BME280;10759;51.982;9.232;2023-08-01T04:08:51;98493.88;;;16.23;100.00
21203;BME280;10759;51.982;9.232;2023-08-01T04:11:21;98479.06;;;16.07;100.00
21203;BME280;10759;51.982;9.232;2023-08-01T04:13:54;98491.16;;;16.13;100.00
21203;BME280;10759;51.982;9.232;2023-08-01T04:16:26;98492.28;;;16.10;100.00
21203;BME280;10759;51.982;9.232;2023-08-01T04:18:54;98495.72;;;16.13;100.00
21203;BME280;10759;51.982;9.232;2023-08-01T04:21:29;98496.25;;;16.06;100.00
21203;BME280;10759;51.982;9.232;2023-08-01T04:24:00;98476.63;;;16.04;100.00
21203;BME280;10759;51.982;9.232;2023-08-01T04:26:32;98404.59;;;15.64;100.00
21203;BME280;10759;51.982;9.232;2023-08-01T04:29:00;98497.56;;;16.22;100.00
21203;BME280;10759;51.982;9.232;2023-08-01T04:31:29;98503.41;;;16.17;100.00
21203;BME280;10759;51.982;9.232;2023-08-01T04:33:57;98499.56;;;16.20;100.00
21203;BME280;10759;51.982;9.232;2023-08-01T04:36:26;98491.47;;;16.20;100.00
21203;BME280;10759;51.982;9.232;2023-08-01T04:38:55;98503.81;;;16.13;100.00
21203;BME280;10759;51.982;9.232;2023-08-01T04:41:23;98501.25;;;16.11;100.00
21203;BME280;10759;51.982;9.232;2023-08-01T04:43:53;98502.47;;;15.97;100.00
21203;BME280;10759;51.982;9.232;2023-08-01T04:46:21;98507.63;;;16.00;100.00
21203;BME280;10759;51.982;9.232;2023-08-01T04:48:49;98504.06;;;16.09;100.00
21203;BME280;10759;51.982;9.232;2023-08-01T04:51:18;98499.97;;;16.05;100.00
21203;BME280;10759;51.982;9.232;2023-08-01T04:53:46;98503.06;;;16.01;100.00
21203;BME280;10759;51.982;9.232;2023-08-01T04:56:14;98503.22;;;16.09;100.00
21203;BME280;10759;51.982;9.232;2023-08-01T04:58:42;98509.06;;;16.14;100.00
21203;BME280;10759;51.982;9.232;2023-08-01T05:01:12;98499.13;;;16.15;100.00
21203;BME280;10759;51.982;9.232;2023-08-01T05:03:40;98461.97;;;15.87;100.00
21203;BME280;10759;51.982;9.232;2023-08-01T05:06:08;98494.41;;;16.07;100.00
21203;BME280;10759;51.982;9.232;2023-08-01T05:08:37;98496.88;;;16.20;100.00
21203;BME280;10759;51.982;9.232;2023-08-01T05:11:05;98491.31;;;16.21;100.00
21203;BME280;10759;51.982;9.232;2023-08-01T05:13:33;98498.03;;;16.27;100.00
21203;BME280;10759;51.982;9.232;2023-08-01T05:16:05;98505.84;;;16.40;100.00
21203;BME280;10759;51.982;9.232;2023-08-01T05:18:35;98503.28;;;16.38;100.00
21203;BME280;10759;51.982;9.232;2023-08-01T05:21:03;98511.53;;;16.46;100.00
21203;BME280;10759;51.982;9.232;2023-08-01T05:23:31;98511.09;;;16.41;100.00
21203;BME280;10759;51.982;9.232;2023-08-01T05:26:00;98496.00;;;16.29;100.00
21203;BME280;10759;51.982;9.232;2023-08-01T05:28:28;98512.00;;;16.42;100.00
21203;BME280;10759;51.982;9.232;2023-08-01T05:30:56;98507.25;;;16.44;100.00
21203;BME280;10759;51.982;9.232;2023-08-01T05:33:24;98509.72;;;16.47;100.00
21203;BME280;10759;51.982;9.232;2023-08-01T05:35:54;98517.13;;;16.55;100.00
21203;BME280;10759;51.982;9.232;2023-08-01T05:38:22;98522.53;;;16.55;100.00
21203;BME280;10759;51.982;9.232;2023-08-01T05:40:50;98515.56;;;16.62;100.00
21203;BME280;10759;51.982;9.232;2023-08-01T05:43:19;98518.38;;;16.60;100.00
21203;BME280;10759;51.982;9.232;2023-08-01T05:45:47;98524.53;;;16.72;100.00
21203;BME280;10759;51.982;9.232;2023-08-01T05:48:19;98532.25;;;16.86;100.00
21203;BME280;10759;51.982;9.232;2023-08-01T05:50:47;98540.44;;;16.75;100.00
21203;BME280;10759;51.982;9.232;2023-08-01T05:53:16;98540.75;;;16.72;100.00
21203;BME280;10759;51.982;9.232;2023-08-01T05:55:46;98544.72;;;16.58;100.00
21203;BME280;10759;51.982;9.232;2023-08-01T05:58:14;98540.84;;;16.41;100.00
21203;BME280;10759;51.982;9.232;2023-08-01T06:00:42;98547.56;;;16.57;100.00
21203;BME280;10759;51.982;9.232;2023-08-01T06:03:11;98544.44;;;16.71;100.00
21203;BME280;10759;51.982;9.232;2023-08-01T06:05:39;98541.47;;;16.64;100.00
21203;BME280;10759;51.982;9.232;2023-08-01T06:08:07;98539.59;;;16.65;100.00
21203;BME280;10759;51.982;9.232;2023-08-01T06:10:39;98539.31;;;16.78;100.00
21203;BME280;10759;51.982;9.232;2023-08-01T06:13:08;98537.03;;;16.73;100.00
21203;BME280;10759;51.982;9.232;2023-08-01T06:15:36;98512.44;;;16.66;100.00
21203;BME280;10759;51.982;9.232;2023-08-01T06:18:04;98550.16;;;16.87;100.00
21203;BME280;10759;51.982;9.232;2023-08-01T06:20:33;98549.88;;;16.81;100.00
21203;BME280;10759;51.982;9.232;2023-08-01T06:23:01;98559.56;;;16.93;100.00
21203;BME280;10759;51.982;9.232;2023-08-01T06:25:32;98560.97;;;17.07;100.00
21203;BME280;10759;51.982;9.232;2023-08-01T06:28:01;98563.13;;;17.03;100.00
21203;BME280;10759;51.982;9.232;2023-08-01T06:30:30;98568.09;;;16.98;100.00
21203;BME280;10759;51.982;9.232;2023-08-01T06:32:58;98568.66;;;16.82;100.00
21203;BME280;10759;51.982;9.232;2023-08-01T06:35:26;98565.84;;;16.93;100.00
21203;BME280;10759;51.982;9.232;2023-08-01T06:37:56;98563.69;;;17.07;100.00
21203;BME280;10759;51.982;9.232;2023-08-01T06:40:24;98572.94;;;17.04;100.00
21203;BME280;10759;51.982;9.232;2023-08-01T06:42:58;98561.81;;;16.78;100.00
21203;BME280;10759;51.982;9.232;2023-08-01T06:45:29;98576.88;;;16.71;100.00
21203;BME280;10759;51.982;9.232;2023-08-01T06:48:00;98577.47;;;16.74;100.00
21203;BME280;10759;51.982;9.232;2023-08-01T06:50:36;98578.00;;;16.68;100.00
21203;BME280;10759;51.982;9.232;2023-08-01T06:53:05;98582.59;;;16.78;100.00
21203;BME280;10759;51.982;9.232;2023-08-01T06:55:35;98570.50;;;16.72;100.00
21203;BME280;10759;51.982;9.232;2023-08-01T06:58:05;98584.78;;;16.84;100.00
21203;BME280;10759;51.982;9.232;2023-08-01T07:00:35;98585.19;;;16.79;100.00
21203;BME280;10759;51.982;9.232;2023-08-01T07:03:03;98587.69;;;16.71;100.00
21203;BME280;10759;51.982;9.232;2023-08-01T07:05:38;98584.56;;;16.66;100.00
21203;BME280;10759;51.982;9.232;2023-08-01T07:08:09;98598.84;;;16.87;100.00
21203;BME280;10759;51.982;9.232;2023-08-01T07:10:37;98598.13;;;16.85;100.00
21203;BME280;10759;51.982;9.232;2023-08-01T07:13:06;98600.84;;;16.85;100.00
21203;BME280;10759;51.982;9.232;2023-08-01T07:15:35;98603.13;;;16.90;100.00
21203;BME280;10759;51.982;9.232;2023-08-01T07:18:11;98605.53;;;16.93;100.00
21203;BME280;10759;51.982;9.232;2023-08-01T07:20:42;98604.25;;;16.87;100.00
21203;BME280;10759;51.982;9.232;2023-08-01T07:23:10;98612.09;;;16.90;100.00
21203;BME280;10759;51.982;9.232;2023-08-01T07:25:39;98611.66;;;16.85;100.00
21203;BME280;10759;51.982;9.232;2023-08-01T07:28:10;98609.38;;;16.90;100.00
21203;BME280;10759;51.982;9.232;2023-08-01T07:31:00;98621.94;;;17.11;100.00
21203;BME280;10759;51.982;9.232;2023-08-01T07:33:34;98624.34;;;17.14;100.00
21203;BME280;10759;51.982;9.232;2023-08-01T07:36:05;98625.94;;;17.26;100.00
21203;BME280;10759;51.982;9.232;2023-08-01T07:38:33;98623.94;;;17.28;100.00
21203;BME280;10759;51.982;9.232;2023-08-01T07:41:05;98624.06;;;17.17;100.00
21203;BME280;10759;51.982;9.232;2023-08-01T07:43:37;98629.06;;;17.12;100.00
21203;BME280;10759;51.982;9.232;2023-08-01T07:46:12;98624.66;;;17.21;100.00
21203;BME280;10759;51.982;9.232;2023-08-01T07:48:42;98641.97;;;17.57;100.00
21203;BME280;10759;51.982;9.232;2023-08-01T07:51:22;98635.16;;;17.63;100.00
21203;BME280;10759;51.982;9.232;2023-08-01T07:53:54;98632.41;;;17.92;100.00
21203;BME280;10759;51.982;9.232;2023-08-01T07:56:29;98579.13;;;17.63;100.00
21203;BME280;10759;51.982;9.232;2023-08-01T07:58:57;98640.03;;;18.06;100.00
21203;BME280;10759;51.982;9.232;2023-08-01T08:01:27;98628.59;;;18.22;100.00
21203;BME280;10759;51.982;9.232;2023-08-01T08:03:58;98630.25;;;18.33;100.00
21203;BME280;10759;51.982;9.232;2023-08-01T08:06:32;98574.03;;;18.35;100.00
21203;BME280;10759;51.982;9.232;2023-08-01T08:09:07;98629.63;;;18.76;100.00
21203;BME280;10759;51.982;9.232;2023-08-01T08:11:44;98633.66;;;18.35;100.00
21203;BME280;10759;51.982;9.232;2023-08-01T08:14:15;98637.78;;;18.01;100.00
21203;BME280;10759;51.982;9.232;2023-08-01T08:16:55;98634.56;;;17.59;100.00
21203;BME280;10759;51.982;9.232;2023-08-01T08:19:32;98640.59;;;17.53;100.00
21203;BME280;10759;51.982;9.232;2023-08-01T08:22:01;98645.81;;;17.64;100.00
21203;BME280;10759;51.982;9.232;2023-08-01T08:24:29;98642.97;;;17.75;100.00
21203;BME280;10759;51.982;9.232;2023-08-01T08:27:04;98643.28;;;17.63;100.00
21203;BME280;10759;51.982;9.232;2023-08-01T08:29:32;98649.25;;;17.66;100.00
21203;BME280;10759;51.982;9.232;2023-08-01T08:32:05;98650.09;;;17.86;100.00
21203;BME280;10759;51.982;9.232;2023-08-01T08:34:34;98625.97;;;17.93;100.00
21203;BME280;10759;51.982;9.232;2023-08-01T08:37:02;98547.75;;;17.70;100.00
21203;BME280;10759;51.982;9.232;2023-08-01T08:39:31;98648.44;;;18.50;100.00
21203;BME280;10759;51.982;9.232;2023-08-01T08:41:59;98639.78;;;18.64;100.00
21203;BME280;10759;51.982;9.232;2023-08-01T08:44:27;98636.00;;;18.75;100.00
21203;BME280;10759;51.982;9.232;2023-08-01T08:47:03;98629.69;;;18.84;100.00
21203;BME280;10759;51.982;9.232;2023-08-01T08:49:32;98629.88;;;19.01;100.00
21203;BME280;10759;51.982;9.232;2023-08-01T08:52:02;98635.22;;;19.11;100.00
21203;BME280;10759;51.982;9.232;2023-08-01T08:54:32;98633.66;;;19.26;100.00
21203;BME280;10759;51.982;9.232;2023-08-01T08:57:04;98642.56;;;19.54;100.00
21203;BME280;10759;51.982;9.232;2023-08-01T08:59:39;98643.38;;;19.90;100.00
21203;BME280;10759;51.982;9.232;2023-08-01T09:02:09;98646.91;;;20.09;100.00
21203;BME280;10759;51.982;9.232;2023-08-01T09:04:44;98607.91;;;19.92;100.00
21203;BME280;10759;51.982;9.232;2023-08-01T09:07:15;98648.47;;;20.20;100.00
21203;BME280;10759;51.982;9.232;2023-08-01T09:35:00;98645.81;;;19.76;98.57
21203;BME280;10759;51.982;9.232;2023-08-01T09:37:40;98649.84;;;19.89;100.00
21203;BME280;10759;51.982;9.232;2023-08-01T09:40:09;98637.94;;;19.90;100.00
21203;BME280;10759;51.982;9.232;2023-08-01T09:43:00;98654.84;;;20.02;100.00
21203;BME280;10759;51.982;9.232;2023-08-01T09:45:29;98663.53;;;19.44;100.00
21203;BME280;10759;51.982;9.232;2023-08-01T09:48:01;98667.44;;;18.78;100.00
21203;BME280;10759;51.982;9.232;2023-08-01T09:50:40;98646.50;;;18.33;100.00
21203;BME280;10759;51.982;9.232;2023-08-01T09:53:08;98653.84;;;18.22;100.00
21203;BME280;10759;51.982;9.232;2023-08-01T09:55:37;98651.63;;;18.36;100.00
21203;BME280;10759;51.982;9.232;2023-08-01T09:58:07;98657.97;;;18.27;100.00
21203;BME280;10759;51.982;9.232;2023-08-01T10:00:38;98669.41;;;18.48;100.00
21203;BME280;10759;51.982;9.232;2023-08-01T10:03:06;98656.69;;;18.58;100.00
21203;BME280;10759;51.982;9.232;2023-08-01T10:05:35;98669.47;;;18.76;100.00
21203;BME280;10759;51.982;9.232;2023-08-01T10:08:11;98676.53;;;19.04;100.00
21203;BME280;10759;51.982;9.232;2023-08-01T10:10:51;98676.47;;;18.69;100.00
21203;BME280;10759;51.982;9.232;2023-08-01T10:13:31;98685.34;;;18.23;100.00
21203;BME280;10759;51.982;9.232;2023-08-01T10:16:01;98683.22;;;18.27;100.00
21203;BME280;10759;51.982;9.232;2023-08-01T11:32:35;98660.59;;;18.74;100.00
21203;BME280;10759;51.982;9.232;2023-08-01T11:35:16;98614.50;;;18.46;100.00
21203;BME280;10759;51.982;9.232;2023-08-01T11:37:45;98651.31;;;18.76;100.00
21203;BME280;10759;51.982;9.232;2023-08-01T11:40:25;98662.91;;;18.69;100.00
21203;BME280;10759;51.982;9.232;2023-08-01T11:43:02;98652.88;;;18.79;100.00
21203;BME280;10759;51.982;9.232;2023-08-01T11:45:30;98666.00;;;19.01;100.00
21203;BME280;10759;51.982;9.232;2023-08-01T11:48:01;98662.84;;;19.24;100.00
21203;BME280;10759;51.982;9.232;2023-08-01T11:50:35;98662.34;;;19.46;100.00
21203;BME280;10759;51.982;9.232;2023-08-01T11:53:17;98662.69;;;19.43;100.00
21203;BME280;10759;51.982;9.232;2023-08-01T11:55:49;98666.78;;;19.29;100.00
21203;BME280;10759;51.982;9.232;2023-08-01T11:58:30;98674.41;;;19.08;100.00
21203;BME280;10759;51.982;9.232;2023-08-01T12:01:12;98667.31;;;18.70;100.00
21203;BME280;10759;51.982;9.232;2023-08-01T12:03:51;98717.19;;;18.59;100.00
21203;BME280;10759;51.982;9.232;2023-08-01T12:06:20;98726.75;;;18.16;100.00
21203;BME280;10759;51.982;9.232;2023-08-01T12:08:51;98747.59;;;17.57;100.00
21203;BME280;10759;51.982;9.232;2023-08-01T12:11:20;98757.53;;;17.17;100.00
21203;BME280;10759;51.982;9.232;2023-08-01T12:14:00;98746.09;;;16.94;100.00
21203;BME280;10759;51.982;9.232;2023-08-01T12:16:29;98756.34;;;16.91;100.00
21203;BME280;10759;51.982;9.232;2023-08-01T12:18:59;98751.22;;;16.67;100.00
21203;BME280;10759;51.982;9.232;2023-08-01T12:21:28;98748.19;;;16.81;100.00
21203;BME280;10759;51.982;9.232;2023-08-01T12:23:58;98753.03;;;16.87;100.00
21203;BME280;10759;51.982;9.232;2023-08-01T12:26:27;98759.97;;;16.80;100.00
21203;BME280;10759;51.982;9.232;2023-08-01T12:28:55;98757.19;;;16.91;100.00
21203;BME280;10759;51.982;9.232;2023-08-01T12:31:27;98752.50;;;16.93;100.00
21203;BME280;10759;51.982;9.232;2023-08-01T12:34:03;98752.66;;;17.02;100.00
21203;BME280;10759;51.982;9.232;2023-08-01T12:36:41;98756.38;;;17.20;100.00
21203;BME280;10759;51.982;9.232;2023-08-01T12:39:15;98746.00;;;17.25;100.00
21203;BME280;10759;51.982;9.232;2023-08-01T12:41:51;98744.47;;;17.62;100.00
21203;BME280;10759;51.982;9.232;2023-08-01T12:44:26;98757.75;;;17.65;100.00
21203;BME280;10759;51.982;9.232;2023-08-01T12:46:54;98751.88;;;17.79;100.00
21203;BME280;10759;51.982;9.232;2023-08-01T12:49:24;98753.03;;;17.96;100.00
21203;BME280;10759;51.982;9.232;2023-08-01T12:51:52;98757.25;;;18.28;100.00
21203;BME280;10759;51.982;9.232;2023-08-01T12:54:24;98738.13;;;18.39;100.00
21203;BME280;10759;51.982;9.232;2023-08-01T12:57:09;98742.81;;;18.84;100.00
21203;BME280;10759;51.982;9.232;2023-08-01T12:59:46;98737.47;;;18.92;100.00
21203;BME280;10759;51.982;9.232;2023-08-01T13:02:15;98745.19;;;19.15;100.00
21203;BME280;10759;51.982;9.232;2023-08-01T13:04:57;98740.59;;;19.25;100.00
21203;BME280;10759;51.982;9.232;2023-08-01T13:07:28;98737.56;;;19.28;100.00
21203;BME280;10759;51.982;9.232;2023-08-01T13:10:05;98733.03;;;19.37;100.00
21203;BME280;10759;51.982;9.232;2023-08-01T13:12:36;98728.81;;;19.70;100.00
21203;BME280;10759;51.982;9.232;2023-08-01T13:15:09;98731.75;;;19.94;100.00
21203;BME280;10759;51.982;9.232;2023-08-01T13:17:43;98744.88;;;19.81;100.00
21203;BME280;10759;51.982;9.232;2023-08-01T13:24:13;98732.59;;;19.95;100.00
21203;BME280;10759;51.982;9.232;2023-08-01T13:26:43;98744.50;;;19.94;100.00
21203;BME280;10759;51.982;9.232;2023-08-01T13:29:14;98743.03;;;19.82;100.00
21203;BME280;10759;51.982;9.232;2023-08-01T13:31:56;98751.66;;;19.77;100.00
21203;BME280;10759;51.982;9.232;2023-08-01T13:34:25;98755.59;;;19.47;100.00
21203;BME280;10759;51.982;9.232;2023-08-01T13:37:04;98782.56;;;19.30;100.00
21203;BME280;10759;51.982;9.232;2023-08-01T13:39:43;98801.97;;;18.71;100.00
21203;BME280;10759;51.982;9.232;2023-08-01T13:42:14;98820.03;;;18.23;100.00
21203;BME280;10759;51.982;9.232;2023-08-01T13:44:45;98810.09;;;17.94;100.00
21203;BME280;10759;51.982;9.232;2023-08-01T13:47:13;98821.31;;;17.70;100.00
21203;BME280;10759;51.982;9.232;2023-08-01T13:49:45;98816.84;;;17.59;100.00
21203;BME280;10759;51.982;9.232;2023-08-01T13:52:17;98818.69;;;17.49;100.00
21203;BME280;10759;51.982;9.232;2023-08-01T13:54:53;98801.59;;;17.39;100.00
21203;BME280;10759;51.982;9.232;2023-08-01T13:57:31;98792.56;;;17.19;100.00
21203;BME280;10759;51.982;9.232;2023-08-01T14:00:00;98809.09;;;17.16;100.00
21203;BME280;10759;51.982;9.232;2023-08-01T14:02:41;98816.38;;;17.15;100.00
21203;BME280;10759;51.982;9.232;2023-08-01T14:05:12;98806.41;;;17.26;100.00
21203;BME280;10759;51.982;9.232;2023-08-01T14:07:43;98813.13;;;17.41;100.00
21203;BME280;10759;51.982;9.232;2023-08-01T14:10:12;98817.16;;;17.66;100.00
21203;BME280;10759;51.982;9.232;2023-08-01T14:12:41;98809.22;;;17.94;100.00
21203;BME280;10759;51.982;9.232;2023-08-01T14:15:12;98809.19;;;18.13;100.00
21203;BME280;10759;51.982;9.232;2023-08-01T14:17:40;98808.34;;;18.22;100.00
21203;BME280;10759;51.982;9.232;2023-08-01T14:20:12;98811.16;;;18.40;100.00
21203;BME280;10759;51.982;9.232;2023-08-01T14:22:43;98801.47;;;18.28;100.00
21203;BME280;10759;51.982;9.232;2023-08-01T14:25:26;98796.03;;;18.38;100.00
21203;BME280;10759;51.982;9.232;2023-08-01T14:27:57;98763.59;;;18.56;100.00
21203;BME280;10759;51.982;9.232;2023-08-01T14:30:26;98780.19;;;18.90;100.00
21203;BME280;10759;51.982;9.232;2023-08-01T14:32:59;98797.97;;;19.02;100.00
21203;BME280;10759;51.982;9.232;2023-08-01T14:35:27;98813.00;;;18.97;100.00
21203;BME280;10759;51.982;9.232;2023-08-01T14:37:58;98812.66;;;19.09;100.00
21203;BME280;10759;51.982;9.232;2023-08-01T14:40:30;98797.25;;;19.10;100.00
21203;BME280;10759;51.982;9.232;2023-08-01T14:43:35;98812.97;;;19.34;100.00
21203;BME280;10759;51.982;9.232;2023-08-01T14:46:22;98821.66;;;19.38;100.00
21203;BME280;10759;51.982;9.232;2023-08-01T14:48:53;98803.75;;;19.17;100.00
21203;BME280;10759;51.982;9.232;2023-08-01T14:51:25;98810.69;;;19.02;100.00